Time;durP1;ratioP1;P1;durP2;ratioP2;P2;SDS_P1;SDS_P2;PMS_P1;PMS_P2;Temp;Humidity;BMP_temperature;BMP_pressure;BME280_temperature;BME280_humidity;BME280_pressure;Samples;Min_cycle;Max_cycle;Signal;HPM_P1;HPM_P2
2022/04/28 00:01:17;;;;;;;11.85;6.75;;;;;;;12.63;67.82;100227.66;7711459;32;39163;-81
2022/04/28 00:05:34;;;;;;;13.32;7.28;;;;;;;12.17;69.14;100224.91;7711600;32;37363;-80
2022/04/28 00:09:50;;;;;;;13.88;6.60;;;;;;;11.98;70.02;100230.87;7711621;32;39898;-81
2022/04/28 00:14:09;;;;;;;12.35;7.37;;;;;;;12.34;68.59;100228.19;7711452;32;40699;-81
2022/04/28 00:18:25;;;;;;;11.57;6.68;;;;;;;12.32;68.45;100230.37;7711695;32;38811;-81
2022/04/28 00:22:42;;;;;;;12.37;7.47;;;;;;;12.40;68.19;100229.84;7711390;32;37943;-81
2022/04/28 00:26:58;;;;;;;10.85;6.35;;;;;;;12.42;68.08;100228.75;7711463;32;39258;-82
2022/04/28 00:31:14;;;;;;;11.25;6.50;;;;;;;12.58;67.75;100223.00;7711167;32;39863;-82
2022/04/28 00:35:30;;;;;;;9.75;5.97;;;;;;;12.46;67.89;100218.91;7711281;32;37945;-81
2022/04/28 00:39:46;;;;;;;11.98;6.60;;;;;;;12.54;67.91;100221.09;7711155;32;37155;-81
2022/04/28 00:44:03;;;;;;;11.63;6.68;;;;;;;12.69;67.41;100218.34;7710504;32;39137;-80
2022/04/28 00:52:54;;;;;;;11.10;6.03;;;;;;;12.66;67.23;100224.38;7710705;32;38745;-81
2022/04/28 00:57:11;;;;;;;11.20;6.53;;;;;;;12.61;66.86;100216.19;7710821;32;37820;-81
2022/04/28 01:01:27;;;;;;;10.80;5.82;;;;;;;12.44;67.76;100221.09;7709673;32;39053;-80
2022/04/28 01:05:43;;;;;;;11.52;6.62;;;;;;;12.53;67.40;100224.94;7710697;32;39851;-80
2022/04/28 01:09:59;;;;;;;10.23;6.78;;;;;;;12.56;67.29;100219.72;7710419;32;38705;-81
2022/04/28 01:14:15;;;;;;;11.48;6.65;;;;;;;12.61;67.09;100221.66;7710564;32;37257;-81
2022/04/28 01:18:31;;;;;;;13.02;7.20;;;;;;;12.55;67.12;100217.25;7710498;32;39371;-81
2022/04/28 01:22:47;;;;;;;11.43;6.80;;;;;;;12.44;67.63;100212.91;7710288;32;40013;-80
2022/04/28 01:27:05;;;;;;;11.25;6.75;;;;;;;12.40;68.22;100218.09;7710021;32;37981;-80
2022/04/28 01:31:21;;;;;;;11.38;6.55;;;;;;;12.58;67.71;100208.50;7710106;32;37309;-80
2022/04/28 01:35:37;;;;;;;10.13;6.43;;;;;;;12.55;67.62;100206.31;7710019;32;40108;-80
2022/04/28 01:39:55;;;;;;;11.63;6.82;;;;;;;12.43;68.34;100212.06;7709831;32;40843;-81
2022/04/28 01:44:12;;;;;;;11.93;6.97;;;;;;;12.42;68.49;100204.13;7709823;32;36823;-81
2022/04/28 01:48:28;;;;;;;10.43;6.15;;;;;;;12.33;68.50;100196.50;7709619;32;37870;-81
2022/04/28 01:57:18;;;;;;;11.07;6.90;;;;;;;12.52;68.00;100199.50;7710919;32;40061;-80
2022/04/28 02:01:34;;;;;;;11.63;6.55;;;;;;;12.51;68.01;100202.50;7712966;32;37958;-80
2022/04/28 02:05:51;;;;;;;8.27;5.37;;;;;;;12.52;67.26;100202.25;7713110;32;36760;-81
2022/04/28 02:10:07;;;;;;;9.65;5.45;;;;;;;12.40;67.04;100199.78;7712800;32;40012;-81
2022/04/28 02:14:23;;;;;;;12.45;6.40;;;;;;;12.37;66.39;100204.97;7711737;32;40922;-80
2022/04/28 02:18:39;;;;;;;10.02;5.90;;;;;;;12.13;66.93;100204.69;7711519;32;38841;-80
2022/04/28 02:22:56;;;;;;;9.80;5.85;;;;;;;12.33;65.91;100203.88;7712864;32;38112;-81
2022/04/28 02:27:12;;;;;;;10.45;6.07;;;;;;;12.36;65.98;100198.66;7712718;32;40020;-81
2022/04/28 02:31:28;;;;;;;11.27;5.95;;;;;;;12.27;66.30;100194.84;7712695;32;39871;-81
2022/04/28 02:35:44;;;;;;;9.38;5.78;;;;;;;11.97;67.03;100199.22;7712540;32;38156;-80
2022/04/28 02:40:00;;;;;;;11.48;6.15;;;;;;;12.16;66.43;100198.69;7712619;32;36860;-82
2022/04/28 02:44:17;;;;;;;9.52;5.62;;;;;;;12.09;66.44;100209.03;7712544;32;39851;-82
2022/04/28 02:48:33;;;;;;;9.25;5.70;;;;;;;12.31;65.86;100206.87;7712594;32;39634;-80
2022/04/28 02:52:53;;;;;;;10.30;5.80;;;;;;;12.16;65.16;100213.16;7712072;32;37697;-81
2022/04/28 02:57:09;;;;;;;9.77;5.93;;;;;;;12.05;66.69;100214.22;7712444;32;37137;-78
2022/04/28 03:01:26;;;;;;;10.02;5.70;;;;;;;11.95;66.78;100209.59;7712367;32;39830;-80
2022/04/28 03:14:53;;;;;;;10.57;5.90;;;;;;;11.93;65.59;100225.41;7712354;32;37199;-80
2022/04/28 03:19:09;;;;;;;9.23;5.72;;;;;;;12.02;65.77;100221.06;7712116;32;40191;-81
2022/04/28 03:23:26;;;;;;;12.23;6.07;;;;;;;12.29;64.09;100225.47;7712072;32;38815;-80
2022/04/28 03:27:43;;;;;;;9.95;5.87;;;;;;;12.11;64.95;100228.75;7711862;32;37928;-80
2022/04/28 03:31:59;;;;;;;9.57;5.53;;;;;;;12.10;64.97;100233.37;7711851;32;36733;-80
2022/04/28 03:40:50;;;;;;;11.23;5.78;;;;;;;11.82;66.92;100237.37;7711842;32;39973;-80
2022/04/28 03:45:06;;;;;;;9.00;5.12;;;;;;;11.49;66.88;100236.72;7711756;32;38672;-79
2022/04/28 03:49:23;;;;;;;9.00;5.87;;;;;;;11.89;65.60;100237.94;7711742;32;36823;-80
2022/04/28 03:53:39;;;;;;;9.40;5.75;;;;;;;11.85;66.06;100242.31;7711618;32;39491;-80
2022/04/28 03:57:56;;;;;;;10.52;5.45;;;;;;;11.89;66.05;100237.94;7711697;32;40045;-80
2022/04/28 04:02:12;;;;;;;11.23;6.12;;;;;;;11.91;66.00;100245.91;7711560;32;37878;-80
2022/04/28 04:06:28;;;;;;;9.82;5.70;;;;;;;11.94;65.57;100251.66;7711609;32;37285;-80
2022/04/28 04:10:44;;;;;;;11.12;6.05;;;;;;;11.87;65.97;100251.06;7710320;32;40144;-80
2022/04/28 04:15:01;;;;;;;10.02;5.90;;;;;;;11.85;66.34;100250.50;7710301;32;39748;-80
2022/04/28 04:19:17;;;;;;;11.30;6.28;;;;;;;11.93;66.28;100246.47;7711054;32;38593;-80
2022/04/28 04:23:34;;;;;;;9.43;5.95;;;;;;;11.88;65.95;100246.41;7711457;32;37389;-78
2022/04/28 04:27:50;;;;;;;9.25;5.40;;;;;;;11.56;66.81;100258.34;7711376;32;39399;-80
2022/04/28 04:32:24;;;;;;;9.63;5.62;;;;;;;11.67;66.64;100259.19;7711315;32;39976;-80
2022/04/28 04:36:41;;;;;;;14.02;5.70;;;;;;;11.88;65.51;100258.16;7711344;32;37858;-80
2022/04/28 04:40:57;;;;;;;8.82;5.60;;;;;;;11.82;66.11;100259.25;7711206;32;37667;-80
2022/04/28 04:45:13;;;;;;;9.40;5.28;;;;;;;11.89;65.81;100251.59;7711281;32;40153;-81
2022/04/28 04:49:29;;;;;;;11.73;5.70;;;;;;;11.86;65.97;100254.88;7710850;32;40970;-80
2022/04/28 04:53:45;;;;;;;10.55;5.70;;;;;;;11.86;66.26;100254.88;7710768;32;38098;-81
2022/04/28 04:58:02;;;;;;;9.82;5.93;;;;;;;12.06;65.97;100258.78;7710885;32;37233;-80
2022/04/28 05:02:19;;;;;;;10.73;5.95;;;;;;;12.13;65.08;100264.81;7710800;32;40067;-80
2022/04/28 05:06:35;;;;;;;10.25;5.57;;;;;;;12.03;64.65;100257.41;7710694;32;40771;-81
2022/04/28 05:10:51;;;;;;;10.25;6.05;;;;;;;11.87;66.06;100264.72;7710502;32;38061;-81
2022/04/28 05:15:08;;;;;;;11.02;6.57;;;;;;;11.82;66.44;100270.97;7710639;32;37214;-81
2022/04/28 05:19:24;;;;;;;12.00;5.75;;;;;;;11.75;66.84;100269.59;7710407;32;39260;-81
2022/04/28 05:23:40;;;;;;;9.98;5.22;;;;;;;12.11;66.50;100277.94;7710253;32;40038;-77
2022/04/28 05:27:57;;;;;;;11.45;5.78;;;;;;;11.96;63.91;100287.72;7710255;32;37798;-82
2022/04/28 05:32:13;;;;;;;8.93;5.68;;;;;;;11.90;65.32;100294.25;7710205;32;36771;-80
2022/04/28 05:36:29;;;;;;;9.95;6.05;;;;;;;11.81;66.28;100296.69;7713410;32;39672;-80
2022/04/28 05:40:45;;;;;;;9.35;5.45;;;;;;;11.98;65.17;100301.94;7713273;32;40955;-80
2022/04/28 05:49:38;;;;;;;9.20;5.53;;;;;;;12.18;65.74;100305.81;7713176;32;37343;-80
2022/04/28 05:53:54;;;;;;;8.98;5.12;;;;;;;12.17;65.54;100302.25;7711785;32;39913;-81
2022/04/28 05:58:10;;;;;;;9.15;4.97;;;;;;;11.91;67.77;100309.56;7713029;32;40690;-80
2022/04/28 06:02:26;;;;;;;7.75;4.87;;;;;;;12.59;66.27;100305.91;7713039;32;38756;-80
2022/04/28 06:06:43;;;;;;;7.68;4.65;;;;;;;12.78;64.59;100308.91;7713033;32;36868;-80
2022/04/28 06:11:01;;;;;;;8.27;4.80;;;;;;;12.86;64.24;100308.34;7712921;32;39962;-80
2022/04/28 06:15:17;;;;;;;8.65;4.65;;;;;;;13.08;63.09;100313.53;7711808;32;39807;-80
2022/04/28 06:19:33;;;;;;;7.45;4.68;;;;;;;12.64;62.68;100316.00;7712847;32;37882;-81
2022/04/28 06:23:49;;;;;;;10.68;5.28;;;;;;;12.95;62.12;100311.34;7712715;32;37751;-80
2022/04/28 06:28:06;;;;;;;8.95;4.97;;;;;;;12.89;62.29;100315.19;7712298;32;40086;-81
2022/04/28 06:32:22;;;;;;;7.12;5.03;;;;;;;12.78;65.23;100314.38;7712505;32;40768;-70
2022/04/28 06:36:38;;;;;;;7.75;4.95;;;;;;;13.01;62.54;100323.12;7712534;32;38791;-80
2022/04/28 06:40:54;;;;;;;10.27;5.72;;;;;;;13.11;61.77;100329.41;7712526;32;37772;-79
2022/04/28 06:45:11;;;;;;;9.63;5.62;;;;;;;12.95;62.09;100325.03;7712450;32;40043;-80
2022/04/28 06:49:28;;;;;;;8.45;5.22;;;;;;;13.08;59.86;100331.87;7712461;32;39778;-79
2022/04/28 06:53:44;;;;;;;11.27;5.30;;;;;;;13.41;59.90;100327.72;7710182;32;37992;-78
2022/04/28 06:58:00;;;;;;;8.55;5.15;;;;;;;13.82;59.37;100327.59;7708907;32;37125;-79
2022/04/28 07:02:17;;;;;;;11.70;5.05;;;;;;;13.92;57.86;100325.91;7709313;32;40026;-78
2022/04/28 07:06:33;;;;;;;7.78;4.55;;;;;;;13.86;57.34;100323.19;7711023;32;40780;-79
2022/04/28 07:10:49;;;;;;;9.63;5.53;;;;;;;14.24;57.51;100323.53;7711910;32;38008;-79
2022/04/28 07:15:05;;;;;;;8.25;5.10;;;;;;;14.48;55.78;100338.50;7712123;32;38126;-75
2022/04/28 07:19:22;;;;;;;9.27;5.05;;;;;;;14.92;56.61;100333.00;7712097;32;39224;-76
2022/04/28 07:23:38;;;;;;;9.88;5.87;;;;;;;15.11;54.05;100329.50;7711903;32;39894;-77
2022/04/28 07:27:55;;;;;;;9.70;5.28;;;;;;;15.18;56.54;100332.75;7711964;32;37589;-76
2022/04/28 07:32:11;;;;;;;8.45;5.10;;;;;;;15.52;52.56;100340.09;7711684;32;36981;-75
2022/04/28 07:36:27;;;;;;;10.45;5.68;;;;;;;15.10;54.94;100333.38;7702464;32;39328;-76
2022/04/28 07:40:43;;;;;;;9.68;5.30;;;;;;;14.86;51.70;100338.81;7698081;32;40877;-75
2022/04/28 07:45:00;;;;;;;10.02;5.70;;;;;;;15.11;53.05;100341.34;7697448;32;38067;-76
2022/04/28 07:49:16;;;;;;;10.60;5.68;;;;;;;15.05;53.75;100341.66;7708241;32;37115;-75
2022/04/28 07:53:32;;;;;;;10.20;5.68;;;;;;;15.40;54.09;100349.56;7710968;32;40082;-76
2022/04/28 07:57:48;;;;;;;10.05;5.82;;;;;;;15.34;56.08;100344.41;7711556;32;39852;-74
2022/04/28 08:02:05;;;;;;;9.32;5.50;;;;;;;15.78;53.47;100337.94;7711507;32;37838;-76
2022/04/28 08:06:21;;;;;;;13.85;6.22;;;;;;;15.48;52.58;100344.53;7711623;32;37878;-77
2022/04/28 08:10:37;;;;;;;9.00;5.32;;;;;;;15.37;55.51;100363.88;7711135;32;39398;-76
2022/04/28 08:14:53;;;;;;;7.68;4.72;;;;;;;15.89;52.82;100352.34;7710339;32;39976;-76
2022/04/28 08:19:10;;;;;;;10.60;5.60;;;;;;;16.33;50.40;100351.22;7710265;32;37928;-77
2022/04/28 08:23:26;;;;;;;9.32;5.25;;;;;;;16.00;49.39;100348.34;7690287;32;37102;-78
2022/04/28 08:27:42;;;;;;;7.82;5.07;;;;;;;16.08;50.72;100357.91;7684157;32;39303;-77
2022/04/28 08:31:58;;;;;;;7.30;4.70;;;;;;;16.44;49.79;100349.97;7684549;32;40776;-80
2022/04/28 08:36:15;;;;;;;8.05;5.05;;;;;;;16.18;46.80;100356.94;7684243;32;37878;-78
2022/04/28 08:40:33;;;;;;;9.48;5.20;;;;;;;16.06;48.29;100355.44;7683418;32;38252;-77
2022/04/28 08:44:52;;;;;;;11.82;4.65;;;;;;;16.49;48.38;100351.84;7682317;32;39238;-77
2022/04/28 08:49:10;;;;;;;12.05;4.35;;;;;;;16.58;48.17;100355.53;7681565;32;39603;-78
2022/04/28 08:53:30;;;;;;;10.07;4.57;;;;;;;16.85;47.51;100354.03;7678840;32;37917;-78
2022/04/28 08:57:46;;;;;;;7.62;4.65;;;;;;;17.62;49.02;100363.72;7679531;32;37929;-78
2022/04/28 09:02:02;;;;;;;9.10;4.45;;;;;;;17.94;46.96;100362.03;7679910;32;38901;-78
2022/04/28 09:06:28;;;;;;;6.80;4.28;;;;;;;17.91;44.43;100363.47;7680453;32;40679;-75
2022/04/28 09:10:49;;;;;;;6.15;4.10;;;;;;;18.37;42.81;100364.44;7682793;32;38009;-78
2022/04/28 09:15:12;;;;;;;7.82;4.37;;;;;;;18.12;43.28;100355.56;7683875;32;37924;-78
2022/04/28 09:19:34;;;;;;;15.55;8.68;;;;;;;17.41;44.72;100352.28;7670285;32;39833;-78
2022/04/28 09:23:52;;;;;;;9.20;4.30;;;;;;;17.92;45.24;100342.19;7682623;32;40876;-80
2022/04/28 09:28:10;;;;;;;9.45;5.47;;;;;;;18.18;40.28;100346.06;7683524;32;38700;-79
2022/04/28 09:32:27;;;;;;;9.48;5.00;;;;;;;18.10;41.77;100340.47;7683778;32;37350;-79
2022/04/28 09:37:01;;;;;;;9.77;5.20;;;;;;;18.44;41.25;100347.41;7683605;32;39801;-79
2022/04/28 09:45:55;;;;;;;6.82;3.80;;;;;;;18.15;42.72;100348.63;7682259;32;38480;-79
2022/04/28 09:50:16;;;;;;;6.62;3.97;;;;;;;18.38;41.81;100347.56;7683220;32;36056;-80
2022/04/28 09:54:36;;;;;;;5.57;3.83;;;;;;;18.39;41.25;100351.12;7682843;32;40105;-80
2022/04/28 09:58:53;;;;;;;12.25;3.85;;;;;;;17.52;40.87;100367.47;7681791;32;40036;-79
2022/04/28 10:03:11;;;;;;;6.80;3.28;;;;;;;17.42;43.01;100356.69;7682714;32;38637;-80
2022/04/28 10:07:28;;;;;;;6.25;3.37;;;;;;;18.18;43.03;100357.09;7682857;32;36561;-80
2022/04/28 10:11:47;;;;;;;5.70;3.33;;;;;;;19.17;42.86;100352.91;7682597;32;39259;-80
2022/04/28 10:16:10;;;;;;;6.78;3.17;;;;;;;19.38;38.52;100342.91;7681439;32;40890;-80
2022/04/28 10:20:35;;;;;;;5.25;3.03;;;;;;;19.51;37.77;100336.47;7684694;32;38029;-77
2022/04/28 10:35:06;;;;;;;6.47;3.20;;;;;;;19.43;38.23;100345.53;7685936;32;40692;-76
2022/04/28 10:39:55;;;;;;;10.02;3.50;;;;;;;19.42;38.90;100343.94;7685886;32;38786;-77
2022/04/28 10:44:17;;;;;;;4.43;3.00;;;;;;;20.07;37.84;100336.03;7652255;32;37278;-77
2022/04/28 10:48:38;;;;;;;4.70;3.10;;;;;;;20.41;37.93;100331.69;7685801;32;39405;-78
2022/04/28 10:52:55;;;;;;;7.10;3.42;;;;;;;20.77;33.65;100336.13;7685559;32;39744;-79
2022/04/28 10:57:14;;;;;;;4.70;2.72;;;;;;;21.06;34.21;100334.59;7685818;32;38297;-81
2022/04/28 11:01:32;;;;;;;7.32;3.10;;;;;;;21.22;33.12;100338.47;7685719;32;37843;-78
2022/04/28 11:05:52;;;;;;;7.07;3.28;;;;;;;21.34;36.26;100346.94;7684451;32;39279;-78
2022/04/28 11:10:12;;;;;;;5.00;3.25;;;;;;;21.16;34.56;100348.94;7684512;32;39817;-78
2022/04/28 11:14:43;;;;;;;4.18;2.78;;;;;;;21.05;38.13;100355.97;7684729;32;37657;-78
2022/04/28 11:18:59;;;;;;;8.48;3.37;;;;;;;20.96;35.97;100353.22;7684531;32;37108;-78
2022/04/28 11:23:19;;;;;;;5.75;3.10;;;;;;;20.87;33.50;100355.19;7685514;32;39864;-78
2022/04/28 11:27:35;;;;;;;6.55;2.78;;;;;;;20.91;35.41;100358.13;7685446;32;39944;-78
2022/04/28 11:31:53;;;;;;;4.28;2.67;;;;;;;21.07;33.74;100366.72;7684610;32;38826;-77
2022/04/28 11:36:17;;;;;;;3.58;2.60;;;;;;;21.15;31.94;100363.13;7684273;32;38113;-78
2022/04/28 11:40:36;;;;;;;3.35;2.15;;;;;;;20.89;33.26;100365.94;7685364;32;38909;-78
2022/04/28 11:44:54;;;;;;;3.65;2.35;;;;;;;20.87;33.02;100369.03;7685184;32;40051;-78
2022/04/28 11:49:11;;;;;;;4.60;2.47;;;;;;;20.56;34.63;100375.53;7685250;32;38061;-78
2022/04/28 11:53:38;;;;;;;4.72;2.80;;;;;;;20.34;36.06;100378.44;7684855;32;37207;-78
2022/04/28 11:57:54;;;;;;;3.17;2.15;;;;;;;20.50;34.91;100370.47;7684080;32;39312;-78
2022/04/28 12:02:46;;;;;;;3.37;2.40;;;;;;;20.55;34.89;100378.63;7684942;32;40676;-78
2022/04/28 12:07:04;;;;;;;4.78;2.53;;;;;;;20.81;32.67;100373.09;7628072;32;38641;-78
2022/04/28 12:15:58;;;;;;;6.90;2.90;;;;;;;21.25;32.20;100373.88;7684755;32;39429;-78
2022/04/28 12:20:14;;;;;;;3.65;2.37;;;;;;;21.20;30.84;100371.28;7684635;32;40700;-78
2022/04/28 12:24:34;;;;;;;4.15;2.40;;;;;;;21.63;31.79;100366.75;7684595;32;38751;-77
2022/04/28 12:28:51;;;;;;;3.55;2.37;;;;;;;22.23;28.49;100356.47;7684723;32;37187;-78
2022/04/28 12:33:08;;;;;;;3.92;2.47;;;;;;;22.66;27.80;100363.72;7684294;32;39323;-78
2022/04/28 12:37:27;;;;;;;4.05;2.40;;;;;;;23.49;27.39;100353.62;7683301;32;40666;-78
2022/04/28 12:41:44;;;;;;;5.00;2.30;;;;;;;23.29;26.36;100349.75;7684137;32;39744;-77
2022/04/28 12:46:00;;;;;;;7.75;2.60;;;;;;;22.84;26.56;100348.53;7683054;32;37048;-79
2022/04/28 12:50:21;;;;;;;4.18;2.17;;;;;;;22.69;26.62;100357.47;7684076;32;39368;-78
2022/04/28 12:54:37;;;;;;;2.70;2.00;;;;;;;22.43;27.03;100346.59;7683906;32;39981;-79
2022/04/28 12:59:04;;;;;;;4.47;2.30;;;;;;;22.08;27.33;100350.38;7683835;32;38727;-81
2022/04/28 13:03:30;;;;;;;3.28;2.22;;;;;;;21.76;28.26;100347.09;7683971;32;36999;-81
2022/04/28 13:07:46;;;;;;;5.78;2.08;;;;;;;21.29;27.55;100349.06;7682732;32;39467;-80
2022/04/28 13:12:03;;;;;;;3.78;2.50;;;;;;;21.11;29.37;100342.75;7683752;32;39978;-78
2022/04/28 13:16:19;;;;;;;3.40;2.40;;;;;;;20.81;27.37;100345.41;7683654;32;38508;-77
2022/04/28 13:20:35;;;;;;;4.70;2.22;;;;;;;21.15;32.46;100335.41;7683655;32;37123;-79
2022/04/28 13:24:53;;;;;;;3.20;2.35;;;;;;;21.45;29.79;100338.25;7683474;32;39331;-79
2022/04/28 13:29:10;;;;;;;6.07;2.40;;;;;;;22.80;30.29;100341.19;7683396;32;38954;-78
2022/04/28 13:33:27;;;;;;;4.62;2.50;;;;;;;24.11;29.06;100325.78;7681929;32;38464;-79
2022/04/28 13:37:43;;;;;;;5.50;2.45;;;;;;;23.93;27.41;100334.38;7683062;32;37132;-79
2022/04/28 13:41:59;;;;;;;4.40;2.37;;;;;;;24.68;26.16;100321.97;7682888;32;38966;-79
2022/04/28 13:46:20;;;;;;;4.25;2.35;;;;;;;24.93;25.19;100321.84;7682828;32;39947;-79
2022/04/28 13:50:40;;;;;;;3.65;2.30;;;;;;;24.87;26.25;100323.25;7682772;32;38012;-81
2022/04/28 13:54:56;;;;;;;3.97;2.78;;;;;;;23.78;26.04;100326.72;7685053;32;37067;-79
2022/04/28 13:59:12;;;;;;;4.05;2.30;;;;;;;23.73;26.01;100327.78;7684884;32;39322;-79
2022/04/28 14:03:30;;;;;;;4.80;2.75;;;;;;;23.83;26.52;100326.50;7701366;32;40146;-79
2022/04/28 14:07:46;;;;;;;4.43;2.30;;;;;;;23.89;25.49;100318.75;7686193;32;37998;-83
2022/04/28 14:12:03;;;;;;;4.72;2.25;;;;;;;24.09;25.43;100315.00;7685122;32;37092;-83
2022/04/28 14:16:19;;;;;;;5.50;2.42;;;;;;;23.54;27.18;100311.66;7685360;32;38987;-85
2022/04/28 14:20:35;;;;;;;4.72;2.35;;;;;;;24.87;23.80;100309.31;7685501;32;39677;-85
2022/04/28 14:24:51;;;;;;;4.30;2.22;;;;;;;24.91;24.01;100321.38;7684152;32;38845;-85
2022/04/28 14:29:08;;;;;;;4.25;2.33;;;;;;;24.82;24.79;100309.56;7685586;32;38172;-85
2022/04/28 14:33:25;;;;;;;5.93;2.50;;;;;;;24.69;25.12;100318.00;7685365;32;39795;-87
2022/04/28 14:37:42;;;;;;;3.50;2.45;;;;;;;23.66;27.48;100340.62;7685653;32;40464;-87
2022/04/28 14:41:58;;;;;;;5.70;2.42;;;;;;;23.69;28.15;100345.50;7685158;32;37894;-83
2022/04/28 14:46:34;;;;;;;4.93;2.55;;;;;;;22.52;30.19;100346.50;7685241;32;37345;-85
2022/04/28 14:55:25;;;;;;;9.30;2.90;;;;;;;21.90;34.25;100351.63;7685081;32;40139;-84
2022/04/28 14:59:41;;;;;;;3.78;2.50;;;;;;;21.26;35.95;100344.97;7685301;32;38025;-84
2022/04/28 15:03:58;;;;;;;3.97;2.40;;;;;;;21.29;35.12;100352.66;7684193;32;37877;-83
2022/04/28 15:08:15;;;;;;;7.00;2.60;;;;;;;21.18;37.25;100348.63;7685227;32;39042;-84
2022/04/28 15:12:31;;;;;;;3.30;2.22;;;;;;;20.92;38.18;100352.25;7685166;32;39686;-83
2022/04/28 15:16:47;;;;;;;6.07;3.08;;;;;;;20.67;38.63;100347.53;7684967;32;38013;-83
2022/04/28 15:21:04;;;;;;;4.50;2.90;;;;;;;20.72;38.38;100347.38;7684970;32;37074;-83
2022/04/28 15:25:20;;;;;;;3.10;2.17;;;;;;;20.80;36.54;100346.56;7683685;32;40057;-83
2022/04/28 15:29:37;;;;;;;5.53;3.30;;;;;;;20.50;37.41;100346.34;7684964;32;40227;-82
2022/04/28 15:33:53;;;;;;;10.95;4.20;;;;;;;20.48;37.86;100339.53;7684557;32;38862;-83
2022/04/28 15:38:11;;;;;;;8.57;3.15;;;;;;;20.51;39.04;100344.41;7684885;32;37962;-82
2022/04/28 15:42:28;;;;;;;5.70;2.92;;;;;;;20.38;38.56;100346.19;7684995;32;39241;-82
2022/04/28 15:46:44;;;;;;;5.07;2.87;;;;;;;20.33;37.97;100351.88;7684319;32;39888;-77
2022/04/28 15:51:00;;;;;;;5.05;3.33;;;;;;;20.43;39.18;100359.88;7684157;32;38128;-76
2022/04/28 15:55:17;;;;;;;8.65;3.40;;;;;;;20.31;44.61;100373.53;7684380;32;38230;-80
2022/04/28 15:59:33;;;;;;;7.07;3.33;;;;;;;19.56;51.10;100393.59;7684517;32;39842;-80
2022/04/28 16:03:50;;;;;;;8.05;3.05;;;;;;;19.49;48.61;100383.00;7684680;32;40821;-80
2022/04/28 16:08:07;;;;;;;4.47;2.78;;;;;;;19.00;49.08;100375.69;7684234;32;38519;-80
2022/04/28 16:12:28;;;;;;;4.90;2.78;;;;;;;18.90;49.82;100374.00;7684715;32;36703;-80
2022/04/28 16:16:44;;;;;;;4.53;3.00;;;;;;;18.22;49.99;100379.37;7683773;32;39213;-82
2022/04/28 16:21:02;;;;;;;7.87;3.60;;;;;;;18.11;50.15;100377.94;7684373;32;40815;-82
2022/04/28 16:25:19;;;;;;;7.62;3.85;;;;;;;18.09;50.22;100391.25;7684368;32;39272;-82
2022/04/28 16:29:35;;;;;;;6.53;3.45;;;;;;;17.90;51.09;100388.59;7684380;32;37735;-80
2022/04/28 16:33:51;;;;;;;9.43;4.40;;;;;;;17.82;51.48;100387.34;7684327;32;39959;-81
2022/04/28 16:38:07;;;;;;;6.47;4.05;;;;;;;18.09;50.46;100394.84;7683987;32;40019;-83
2022/04/28 16:42:24;;;;;;;6.78;3.60;;;;;;;18.03;52.04;100398.81;7683989;32;38863;-83
2022/04/28 16:46:40;;;;;;;4.28;2.85;;;;;;;17.90;52.43;100394.09;7684089;32;37773;-83
2022/04/28 16:50:56;;;;;;;6.70;3.20;;;;;;;17.73;50.39;100411.22;7675598;32;268618;-83
2022/04/28 16:55:14;;;;;;;6.72;3.30;;;;;;;17.71;50.45;100418.97;7682802;32;40027;-83
2022/04/28 16:59:30;;;;;;;6.25;3.40;;;;;;;17.74;52.05;100421.13;7683894;32;37598;-82
2022/04/28 17:08:21;;;;;;;7.43;3.85;;;;;;;17.46;51.03;100429.34;7683659;32;39278;-82
2022/04/28 17:12:38;;;;;;;7.62;3.55;;;;;;;17.42;52.26;100434.66;7683579;32;40782;-82
2022/04/28 17:16:54;;;;;;;8.63;4.45;;;;;;;17.33;53.50;100436.44;7682180;32;39216;-82
2022/04/28 17:21:11;;;;;;;8.40;3.78;;;;;;;17.19;54.63;100435.59;7683449;32;37056;-82
2022/04/28 17:25:27;;;;;;;7.15;3.65;;;;;;;17.29;53.60;100445.62;7683789;32;38978;-83
2022/04/28 17:29:43;;;;;;;7.82;4.05;;;;;;;17.53;48.81;100451.03;7680809;32;39985;-83
2022/04/28 17:34:01;;;;;;;7.25;4.15;;;;;;;17.37;51.83;100455.97;7682934;32;38033;-81
2022/04/28 17:38:18;;;;;;;8.45;5.03;;;;;;;17.49;50.04;100459.06;7683390;32;36731;-81
2022/04/28 17:42:34;;;;;;;9.23;4.82;;;;;;;17.51;48.34;100470.63;7682144;32;39273;-81
2022/04/28 17:46:50;;;;;;;10.02;4.80;;;;;;;17.36;49.14;100482.69;7683255;32;40781;-81
2022/04/28 17:51:06;;;;;;;9.40;4.30;;;;;;;17.05;52.56;100490.63;7683090;32;38454;-81
2022/04/28 17:59:57;;;;;;;8.27;4.35;;;;;;;16.92;51.43;100492.19;7682944;32;39095;-81
2022/04/28 18:04:13;;;;;;;9.07;3.83;;;;;;;16.74;51.96;100513.06;7682762;32;40853;-81
2022/04/28 18:08:30;;;;;;;7.40;4.10;;;;;;;16.72;53.62;100520.78;7682668;32;37997;-81
2022/04/28 18:12:47;;;;;;;6.87;3.92;;;;;;;16.55;52.99;100535.03;7681541;32;37119;-81
2022/04/28 18:17:04;;;;;;;7.97;3.85;;;;;;;16.60;54.17;100537.72;7682520;32;39834;-80
2022/04/28 18:21:20;;;;;;;5.50;3.53;;;;;;;16.41;55.06;100537.69;7681325;32;40869;-80
2022/04/28 18:25:38;;;;;;;8.82;3.80;;;;;;;16.31;55.37;100548.78;7682051;32;38676;-77
2022/04/28 18:29:56;;;;;;;6.75;3.78;;;;;;;16.32;56.18;100561.44;7681159;32;36996;-80
2022/04/28 18:34:12;;;;;;;6.32;3.80;;;;;;;16.26;57.12;100563.41;7682058;32;41515;-81
2022/04/28 18:47:40;;;;;;;9.15;4.95;;;;;;;15.96;56.86;100578.31;7693373;32;38002;-80
2022/04/28 18:51:57;;;;;;;10.02;5.47;;;;;;;15.72;57.89;100581.75;7685723;32;38587;-81
2022/04/28 18:56:13;;;;;;;8.35;4.75;;;;;;;15.75;56.88;100594.97;7685758;32;39796;-81
2022/04/28 19:00:33;;;;;;;7.62;4.68;;;;;;;15.68;57.60;100602.69;7685578;32;38018;-81
2022/04/28 19:04:50;;;;;;;8.60;4.93;;;;;;;15.69;57.53;100609.81;7685702;32;37156;-80
2022/04/28 19:09:07;;;;;;;8.25;4.87;;;;;;;15.38;58.35;100610.03;7685518;32;40517;-80
2022/04/28 19:13:23;;;;;;;9.27;4.65;;;;;;;15.50;57.29;100617.09;7685617;32;40699;-80
2022/04/28 19:17:40;;;;;;;7.82;4.53;;;;;;;15.58;55.73;100625.56;7685351;32;38069;-79
2022/04/28 19:21:57;;;;;;;6.43;3.92;;;;;;;15.51;56.49;100635.25;7685419;32;36731;-80
2022/04/28 19:26:13;;;;;;;7.25;3.85;;;;;;;15.31;57.51;100642.47;7685354;32;39042;-80
2022/04/28 19:30:29;;;;;;;6.53;3.53;;;;;;;15.35;56.49;100643.56;7684992;32;40804;-80
2022/04/28 19:34:46;;;;;;;5.15;3.33;;;;;;;15.72;53.05;100649.66;7685183;32;38894;-79
2022/04/28 19:39:03;;;;;;;6.10;3.75;;;;;;;15.41;54.96;100658.09;7684935;32;36782;-80
2022/04/28 19:43:19;;;;;;;6.62;3.30;;;;;;;15.44;53.26;100657.53;7684428;32;39430;-80
2022/04/28 19:47:36;;;;;;;6.90;3.80;;;;;;;15.57;53.39;100667.06;7685091;32;40856;-80
2022/04/28 19:51:53;;;;;;;7.07;3.70;;;;;;;15.40;53.16;100679.25;7684194;32;37890;-80
2022/04/28 19:56:10;;;;;;;9.80;4.25;;;;;;;15.42;54.02;100680.87;7685157;32;37140;-81
2022/04/28 20:00:26;;;;;;;7.45;4.35;;;;;;;15.24;54.73;100691.41;7684943;32;39244;-80
2022/04/28 20:04:44;;;;;;;8.90;4.60;;;;;;;15.04;55.43;100697.81;7684935;32;40011;-79
2022/04/28 20:09:01;;;;;;;9.38;5.03;;;;;;;15.07;56.94;100693.69;7684836;32;37995;-80
2022/04/28 20:13:17;;;;;;;8.35;4.60;;;;;;;15.16;56.57;100691.97;7685013;32;37037;-78
2022/04/28 20:17:33;;;;;;;7.80;4.30;;;;;;;15.30;55.67;100689.47;7684929;32;39794;-79
2022/04/28 20:21:49;;;;;;;9.32;4.95;;;;;;;14.98;57.18;100698.91;7671102;32;39958;-80
2022/04/28 20:26:06;;;;;;;8.32;4.47;;;;;;;14.94;57.32;100698.66;7685083;32;36796;-80
2022/04/28 20:30:24;;;;;;;6.47;4.10;;;;;;;14.94;56.20;100704.16;7684500;32;37697;-80
2022/04/28 20:34:42;;;;;;;6.65;4.10;;;;;;;15.10;54.97;100702.16;7684489;32;39343;-78
2022/04/28 20:39:03;;;;;;;10.32;4.45;;;;;;;14.91;56.48;100692.91;7684567;32;40011;-79
2022/04/28 20:43:20;;;;;;;6.37;3.67;;;;;;;15.07;55.51;100701.91;7684148;32;37967;-80
2022/04/28 20:47:36;;;;;;;7.93;3.90;;;;;;;15.16;54.23;100703.81;7684412;32;37512;-79
2022/04/28 20:51:52;;;;;;;7.60;3.55;;;;;;;15.08;53.62;100715.37;7684114;32;39399;-79
2022/04/28 20:56:09;;;;;;;6.60;3.55;;;;;;;15.11;53.38;100709.31;7684110;32;39698;-79
2022/04/28 21:00:25;;;;;;;6.12;3.65;;;;;;;15.23;52.57;100717.25;7684079;32;37632;-76
2022/04/28 21:04:41;;;;;;;7.25;3.67;;;;;;;14.97;52.87;100727.47;7683984;32;36900;-79